createdAt,value
2017-07-01T00:00:49.428Z,0
2017-07-01T00:01:51.761Z,0
2017-07-01T00:02:53.759Z,0
2017-07-01T00:03:55.761Z,0
2017-07-01T00:04:57.761Z,0
2017-07-01T00:05:59.753Z,0
2017-07-01T00:07:01.753Z,0
2017-07-01T00:08:03.757Z,0
2017-07-01T00:09:05.755Z,0
2017-07-01T00:10:07.761Z,0
2017-07-01T00:11:09.793Z,0
2017-07-01T00:12:11.806Z,0
2017-07-01T00:13:13.792Z,0
2017-07-01T00:14:16.128Z,0
2017-07-01T00:15:18.812Z,0
2017-07-01T00:16:20.804Z,0
2017-07-01T00:17:22.805Z,0
2017-07-01T00:18:24.842Z,0
2017-07-01T00:19:26.888Z,0
2017-07-01T00:20:28.893Z,0
2017-07-01T00:21:30.894Z,0
2017-07-01T00:22:33.216Z,0
2017-07-01T00:23:35.213Z,0
2017-07-01T00:24:37.213Z,0
2017-07-01T00:25:39.211Z,0
2017-07-01T00:26:41.242Z,0
2017-07-01T00:27:43.921Z,0
2017-07-01T00:28:45.913Z,0
2017-07-01T00:29:47.906Z,0
2017-07-01T00:30:50.234Z,0
2017-07-01T00:31:52.241Z,0
2017-07-01T00:32:54.238Z,0
2017-07-01T00:33:56.573Z,0
2017-07-01T00:34:58.902Z,0
2017-07-01T00:36:00.921Z,0
2017-07-01T00:37:03.253Z,0
2017-07-01T00:38:05.597Z,0
2017-07-01T00:39:07.938Z,0
2017-07-01T00:40:09.946Z,0
2017-07-01T00:41:11.951Z,0
2017-07-01T00:42:13.947Z,0
2017-07-01T00:43:15.947Z,0
2017-07-01T00:44:17.957Z,0
2017-07-01T00:45:19.978Z,0
2017-07-01T00:46:21.988Z,0
2017-07-01T00:47:24.321Z,0
2017-07-01T00:48:26.671Z,0
2017-07-01T00:49:28.667Z,0
2017-07-01T00:50:30.664Z,0
2017-07-01T00:51:32.667Z,0
2017-07-01T00:52:34.667Z,0
2017-07-01T00:53:36.995Z,0
2017-07-01T00:54:39.020Z,0
2017-07-01T00:55:41.024Z,0
2017-07-01T00:56:43.028Z,0
2017-07-01T00:57:45.022Z,0
2017-07-01T00:58:47.707Z,0
2017-07-01T00:59:49.706Z,0
2017-07-01T01:00:51.699Z,0
2017-07-01T01:01:53.699Z,0
2017-07-01T01:02:55.688Z,0
2017-07-01T01:03:58.671Z,0
2017-07-01T01:05:01.687Z,0
2017-07-01T01:06:03.687Z,0
2017-07-01T01:07:05.686Z,0
2017-07-01T01:08:07.686Z,0
2017-07-01T01:09:09.679Z,0
2017-07-01T01:10:11.675Z,0
2017-07-01T01:11:13.670Z,0
2017-07-01T01:12:15.677Z,0
2017-07-01T01:13:17.675Z,0
2017-07-01T01:14:19.678Z,0
2017-07-01T01:15:21.675Z,0
2017-07-01T01:16:24.013Z,0
2017-07-01T01:17:26.011Z,0
2017-07-01T01:18:28.019Z,0
2017-07-01T01:19:30.028Z,0
2017-07-01T01:20:32.029Z,0
2017-07-01T01:21:34.024Z,0
2017-07-01T01:22:36.020Z,0
2017-07-01T01:23:38.365Z,0
2017-07-01T01:24:40.369Z,0
2017-07-01T01:25:42.362Z,0
2017-07-01T01:26:44.366Z,0
2017-07-01T01:27:46.364Z,0
2017-07-01T01:28:48.356Z,0
2017-07-01T01:29:50.355Z,0
2017-07-01T01:30:52.353Z,0
2017-07-01T01:31:54.355Z,0
2017-07-01T01:32:56.386Z,0
2017-07-01T01:33:58.381Z,0
2017-07-01T01:35:00.376Z,0
2017-07-01T01:36:02.719Z,0
2017-07-01T01:37:04.714Z,0
2017-07-01T01:38:06.708Z,0
2017-07-01T01:39:08.704Z,0
2017-07-01T01:40:10.702Z,0
2017-07-01T01:41:12.701Z,0
2017-07-01T01:42:14.703Z,0
2017-07-01T01:43:16.709Z,0
2017-07-01T01:44:18.742Z,0
2017-07-01T01:45:20.742Z,0
2017-07-01T01:46:22.740Z,0
2017-07-01T01:47:25.091Z,0
2017-07-01T01:48:27.112Z,0
2017-07-01T01:49:29.458Z,0
2017-07-01T01:50:31.456Z,0
2017-07-01T01:51:33.454Z,0
2017-07-01T01:52:35.447Z,0
2017-07-01T01:53:37.451Z,0
2017-07-01T01:54:39.454Z,0
2017-07-01T01:55:41.797Z,0
2017-07-01T01:56:44.135Z,0
2017-07-01T01:57:46.129Z,0
2017-07-01T01:58:48.131Z,0
2017-07-01T01:59:50.126Z,0
2017-07-01T02:00:52.123Z,0
2017-07-01T02:01:54.465Z,0
2017-07-01T02:02:56.466Z,0
2017-07-01T02:03:58.469Z,0
2017-07-01T02:05:00.803Z,0
2017-07-01T02:06:02.801Z,0
2017-07-01T02:07:04.815Z,0
2017-07-01T02:08:06.808Z,0
2017-07-01T02:09:09.144Z,0
2017-07-01T02:10:11.139Z,0
2017-07-01T02:11:13.483Z,0
2017-07-01T02:12:15.480Z,0
2017-07-01T02:13:17.476Z,0
2017-07-01T02:14:19.817Z,0
2017-07-01T02:15:21.812Z,0
2017-07-01T02:16:23.817Z,0
2017-07-01T02:17:25.820Z,0
2017-07-01T02:18:28.155Z,0
2017-07-01T02:19:30.167Z,0
2017-07-01T02:20:32.163Z,0
2017-07-01T02:21:34.166Z,0
2017-07-01T02:22:36.205Z,0
2017-07-01T02:23:38.538Z,0
2017-07-01T02:24:40.871Z,0
2017-07-01T02:25:42.868Z,0
2017-07-01T02:26:45.198Z,0
2017-07-01T02:27:47.202Z,0
2017-07-01T02:28:49.194Z,0
2017-07-01T02:29:51.196Z,0
2017-07-01T02:30:53.200Z,0
2017-07-01T02:31:55.205Z,0
2017-07-01T02:32:57.200Z,0
2017-07-01T02:33:59.210Z,0
2017-07-01T02:35:01.556Z,0
2017-07-01T02:36:03.557Z,0
2017-07-01T02:37:05.552Z,0
2017-07-01T02:38:07.560Z,0
2017-07-01T02:39:09.564Z,0
2017-07-01T02:40:11.555Z,0
2017-07-01T02:41:13.560Z,0
2017-07-01T02:42:15.569Z,0
2017-07-01T02:43:17.572Z,0
2017-07-01T02:44:19.908Z,0
2017-07-01T02:45:21.908Z,0
2017-07-01T02:46:23.910Z,0
2017-07-01T02:47:25.917Z,0
2017-07-01T02:48:28.267Z,0
2017-07-01T02:49:30.263Z,0
2017-07-01T02:50:32.605Z,0
2017-07-01T02:51:34.604Z,0
2017-07-01T02:52:36.607Z,0
2017-07-01T02:53:38.956Z,0
2017-07-01T02:54:40.952Z,0
2017-07-01T02:55:42.950Z,0
2017-07-01T02:56:45.286Z,0
2017-07-01T02:57:47.296Z,0
2017-07-01T02:58:49.296Z,0
2017-07-01T02:59:51.289Z,0
2017-07-01T03:00:53.300Z,0
2017-07-01T03:01:55.635Z,1
2017-07-01T03:02:57.634Z,1
2017-07-01T03:03:59.634Z,1
2017-07-01T03:05:01.631Z,1
2017-07-01T03:06:03.635Z,1
2017-07-01T03:07:05.633Z,1
2017-07-01T03:08:07.639Z,1
2017-07-01T03:09:09.639Z,1
2017-07-01T03:10:11.645Z,1
2017-07-01T03:11:13.647Z,1
2017-07-01T03:12:15.652Z,1
2017-07-01T03:13:18.348Z,1
2017-07-01T03:14:20.690Z,1
2017-07-01T03:15:22.683Z,1
2017-07-01T03:16:24.687Z,1
2017-07-01T03:17:26.688Z,1
2017-07-01T03:18:29.025Z,1
2017-07-01T03:19:31.025Z,1
2017-07-01T03:20:33.039Z,1
2017-07-01T03:21:35.094Z,2
2017-07-01T03:22:37.089Z,2
2017-07-01T03:23:39.088Z,2
2017-07-01T03:24:41.092Z,2
2017-07-01T03:25:43.098Z,2
2017-07-01T03:26:45.435Z,1
2017-07-01T03:27:47.432Z,1
2017-07-01T03:28:49.434Z,2
2017-07-01T03:29:51.774Z,2
2017-07-01T03:30:53.777Z,2
2017-07-01T03:31:55.801Z,2
2017-07-01T03:32:58.137Z,3
2017-07-01T03:34:00.144Z,2
2017-07-01T03:35:02.479Z,2
2017-07-01T03:36:04.827Z,2
2017-07-01T03:37:06.822Z,3
2017-07-01T03:38:08.822Z,2
2017-07-01T03:39:11.120Z,2
2017-07-01T03:40:13.119Z,2
2017-07-01T03:41:15.134Z,2
2017-07-01T03:42:17.132Z,3
2017-07-01T03:43:19.462Z,4
2017-07-01T03:44:21.799Z,5
2017-07-01T03:45:23.798Z,5
2017-07-01T03:46:26.131Z,6
2017-07-01T03:47:28.133Z,6
2017-07-01T03:48:30.471Z,5
2017-07-01T03:49:32.810Z,5
2017-07-01T03:50:34.819Z,5
2017-07-01T03:51:36.820Z,4
2017-07-01T03:52:38.819Z,5
2017-07-01T03:53:41.170Z,4
2017-07-01T03:54:43.161Z,5
2017-07-01T03:55:45.165Z,4
2017-07-01T03:56:47.166Z,4
2017-07-01T03:57:49.167Z,5
2017-07-01T03:58:51.174Z,5
2017-07-01T03:59:53.182Z,5
2017-07-01T04:00:55.183Z,5
2017-07-01T04:01:57.187Z,5
2017-07-01T04:02:59.181Z,6
2017-07-01T04:04:01.183Z,6
2017-07-01T04:05:03.197Z,6
2017-07-01T04:06:05.196Z,6
2017-07-01T04:07:07.187Z,6
2017-07-01T04:08:09.185Z,5
2017-07-01T04:09:11.188Z,6
2017-07-01T04:10:13.197Z,7
2017-07-01T04:11:15.206Z,6
2017-07-01T04:12:17.206Z,6
2017-07-01T04:13:19.215Z,6
2017-07-01T04:14:21.205Z,7
2017-07-01T04:15:23.210Z,7
2017-07-01T04:16:25.216Z,7
2017-07-01T04:17:27.572Z,8
2017-07-01T04:18:29.573Z,7
2017-07-01T04:19:31.573Z,8
2017-07-01T04:20:33.569Z,7
2017-07-01T04:21:35.578Z,7
2017-07-01T04:22:37.576Z,8
2017-07-01T04:23:39.583Z,8
2017-07-01T04:24:41.620Z,7
2017-07-01T04:25:44.298Z,6
2017-07-01T04:26:46.631Z,8
2017-07-01T04:27:48.637Z,7
2017-07-01T04:28:50.666Z,7
2017-07-01T04:29:53.010Z,9
2017-07-01T04:30:55.012Z,8
2017-07-01T04:31:57.058Z,7
2017-07-01T04:32:59.054Z,9
2017-07-01T04:34:01.391Z,9
2017-07-01T04:35:03.394Z,8
2017-07-01T04:36:05.405Z,7
2017-07-01T04:37:07.405Z,9
2017-07-01T04:38:09.404Z,9
2017-07-01T04:39:11.404Z,10
2017-07-01T04:40:13.754Z,9
2017-07-01T04:41:15.756Z,9
2017-07-01T04:42:17.757Z,10
2017-07-01T04:43:20.089Z,10
2017-07-01T04:44:22.090Z,10
2017-07-01T04:45:24.096Z,11
2017-07-01T04:46:26.100Z,11
2017-07-01T04:47:28.098Z,13
2017-07-01T04:48:30.105Z,11
2017-07-01T04:49:32.113Z,11
2017-07-01T04:50:34.117Z,15
2017-07-01T04:51:36.455Z,13
2017-07-01T04:52:38.456Z,13
2017-07-01T04:53:40.461Z,15
2017-07-01T04:54:42.455Z,15
2017-07-01T04:55:44.457Z,17
2017-07-01T04:56:46.466Z,14
2017-07-01T04:57:48.463Z,14
2017-07-01T04:58:50.465Z,13
2017-07-01T04:59:52.471Z,17
2017-07-01T05:00:54.475Z,15
2017-07-01T05:01:56.463Z,15
2017-07-01T05:02:58.460Z,14
2017-07-01T05:04:00.464Z,13
2017-07-01T05:05:02.468Z,12
2017-07-01T05:06:04.474Z,12
2017-07-01T05:07:06.478Z,12
2017-07-01T05:08:08.485Z,12
2017-07-01T05:09:10.487Z,13
2017-07-01T05:10:12.484Z,13
2017-07-01T05:11:14.495Z,15
2017-07-01T05:12:16.499Z,18
2017-07-01T05:13:18.841Z,17
2017-07-01T05:14:20.848Z,19
2017-07-01T05:15:22.855Z,17
2017-07-01T05:16:24.859Z,17
2017-07-01T05:17:26.858Z,16
2017-07-01T05:18:28.864Z,19
2017-07-01T05:19:30.865Z,18
2017-07-01T05:20:32.861Z,19
2017-07-01T05:21:34.863Z,21
2017-07-01T05:22:36.852Z,21
2017-07-01T05:23:38.869Z,24
2017-07-01T05:24:40.871Z,27
2017-07-01T05:25:42.862Z,26
2017-07-01T05:26:44.867Z,29
2017-07-01T05:27:46.882Z,28
2017-07-01T05:28:48.883Z,31
2017-07-01T05:29:50.889Z,30
2017-07-01T05:30:52.891Z,33
2017-07-01T05:31:54.896Z,33
2017-07-01T05:32:56.896Z,28
2017-07-01T05:33:58.897Z,25
2017-07-01T05:35:00.903Z,29
2017-07-01T05:36:02.901Z,33
2017-07-01T05:37:05.246Z,34
2017-07-01T05:38:07.247Z,33
2017-07-01T05:39:09.608Z,32
2017-07-01T05:40:11.612Z,30
2017-07-01T05:41:13.616Z,32
2017-07-01T05:42:15.619Z,29
2017-07-01T05:43:17.619Z,32
2017-07-01T05:44:19.612Z,30
2017-07-01T05:45:21.619Z,31
2017-07-01T05:46:23.632Z,28
2017-07-01T05:47:25.637Z,28
2017-07-01T05:48:27.640Z,25
2017-07-01T05:49:29.639Z,27
2017-07-01T05:50:31.641Z,25
2017-07-01T05:51:33.639Z,32
2017-07-01T05:52:35.640Z,26
2017-07-01T05:53:38.003Z,26
2017-07-01T05:54:40.013Z,28
2017-07-01T05:55:42.012Z,28
2017-07-01T05:56:44.354Z,26
2017-07-01T05:59:20.548Z,28
2017-07-01T06:00:22.620Z,34
2017-07-01T06:01:24.700Z,29
2017-07-01T06:02:26.761Z,23
2017-07-01T06:03:28.834Z,29
2017-07-01T06:04:30.903Z,28
2017-07-01T06:05:32.964Z,27
2017-07-01T06:06:35.036Z,26
2017-07-01T06:07:37.095Z,25
2017-07-01T06:08:39.173Z,29
2017-07-01T06:09:41.240Z,28
2017-07-01T06:10:43.278Z,27
2017-07-01T06:11:45.361Z,31
2017-07-01T06:12:47.427Z,29
2017-07-01T06:13:49.489Z,27
2017-07-01T06:14:51.552Z,30
2017-07-01T06:15:53.619Z,31
2017-07-01T06:16:55.710Z,37
2017-07-01T06:17:57.762Z,24
2017-07-01T06:18:59.833Z,23
2017-07-01T06:20:01.901Z,24
2017-07-01T06:21:04.316Z,24
2017-07-01T06:22:06.738Z,27
2017-07-01T06:23:08.810Z,24
2017-07-01T06:24:10.902Z,21
2017-07-01T06:25:12.990Z,24
2017-07-01T06:26:15.041Z,22
2017-07-01T06:27:17.115Z,21
2017-07-01T06:28:19.519Z,21
2017-07-01T06:29:21.581Z,23
2017-07-01T06:30:23.646Z,24
2017-07-01T06:31:25.717Z,24
2017-07-01T06:32:28.124Z,25
2017-07-01T06:33:30.228Z,26
2017-07-01T06:34:32.668Z,23
2017-07-01T06:35:35.000Z,22
2017-07-01T06:36:37.470Z,23
2017-07-01T06:37:39.536Z,22
2017-07-01T06:38:41.608Z,22
2017-07-01T06:39:43.671Z,20
2017-07-01T06:40:45.749Z,21
2017-07-01T06:41:48.013Z,21
2017-07-01T06:42:50.434Z,26
2017-07-01T06:43:52.499Z,27
2017-07-01T06:44:54.922Z,28
2017-07-01T06:45:56.981Z,26
2017-07-01T06:46:59.049Z,28
2017-07-01T06:48:01.120Z,31
2017-07-01T06:49:03.532Z,31
2017-07-01T06:50:05.647Z,34
2017-07-01T06:51:07.737Z,36
2017-07-01T06:52:09.800Z,38
2017-07-01T06:53:12.224Z,37
2017-07-01T06:54:14.289Z,34
2017-07-01T06:55:16.355Z,37
2017-07-01T06:56:18.534Z,40
2017-07-01T06:57:20.595Z,37
2017-07-01T06:58:22.653Z,38
2017-07-01T06:59:24.710Z,40
2017-07-01T07:00:26.792Z,37
2017-07-01T07:01:28.859Z,49
2017-07-01T07:02:30.932Z,49
2017-07-01T07:03:32.997Z,41
2017-07-01T07:04:35.068Z,46
2017-07-01T07:05:37.130Z,46
2017-07-01T07:06:39.202Z,45
2017-07-01T07:07:41.260Z,44
2017-07-01T07:08:43.343Z,46
2017-07-01T07:09:45.413Z,51
2017-07-01T07:10:47.482Z,58
2017-07-01T07:11:49.891Z,67
2017-07-01T07:12:51.959Z,53
2017-07-01T07:13:54.021Z,64
2017-07-01T07:14:56.091Z,61
2017-07-01T07:15:58.142Z,54
2017-07-01T07:17:00.220Z,54
2017-07-01T07:18:02.296Z,54
2017-07-01T07:19:04.383Z,58
2017-07-01T07:20:06.449Z,59
2017-07-01T07:21:08.948Z,61
2017-07-01T07:22:11.027Z,51
2017-07-01T07:23:13.129Z,46
2017-07-01T07:24:15.202Z,46
2017-07-01T07:25:17.284Z,47
2017-07-01T07:26:19.333Z,55
2017-07-01T07:27:21.742Z,55
2017-07-01T07:28:23.826Z,47
2017-07-01T07:29:25.889Z,51
2017-07-01T07:30:27.955Z,56
2017-07-01T07:31:30.007Z,51
2017-07-01T07:32:32.084Z,49
2017-07-01T07:33:34.147Z,51
2017-07-01T07:34:36.217Z,42
2017-07-01T07:35:38.279Z,41
2017-07-01T07:36:40.356Z,44
2017-07-01T07:37:42.444Z,38
2017-07-01T07:38:44.839Z,41
2017-07-01T07:39:46.904Z,38
2017-07-01T07:40:49.009Z,33
2017-07-01T07:41:51.072Z,44
2017-07-01T07:42:53.139Z,50
2017-07-01T07:43:55.208Z,55
2017-07-01T07:44:57.290Z,44
2017-07-01T07:46:00.066Z,42
2017-07-01T07:47:02.454Z,54
2017-07-01T07:48:04.564Z,49
2017-07-01T07:49:06.631Z,43
2017-07-01T07:50:08.686Z,42
2017-07-01T07:51:11.255Z,41
2017-07-01T07:52:13.349Z,39
2017-07-01T07:53:15.902Z,40
2017-07-01T07:54:18.004Z,41
2017-07-01T07:55:20.072Z,42
2017-07-01T07:56:22.140Z,46
2017-07-01T07:57:24.203Z,41
2017-07-01T07:58:26.262Z,40
2017-07-01T07:59:28.341Z,42
2017-07-01T08:00:30.403Z,53
2017-07-01T08:01:32.471Z,46
2017-07-01T08:02:34.555Z,43
2017-07-01T08:03:36.615Z,47
2017-07-01T08:04:38.672Z,47
2017-07-01T08:05:40.766Z,48
2017-07-01T08:06:42.829Z,56
2017-07-01T08:07:44.911Z,52
2017-07-01T08:08:46.979Z,51
2017-07-01T08:09:49.057Z,56
2017-07-01T08:10:51.498Z,53
2017-07-01T08:11:53.551Z,61
2017-07-01T08:12:55.613Z,61
2017-07-01T08:13:58.036Z,60
2017-07-01T08:15:00.443Z,56
2017-07-01T08:16:02.637Z,53
2017-07-01T08:17:04.705Z,60
2017-07-01T08:18:06.770Z,65
2017-07-01T08:19:09.199Z,63
2017-07-01T08:20:11.249Z,70
2017-07-01T08:21:13.340Z,65
2017-07-01T08:22:15.407Z,72
2017-07-01T08:23:17.871Z,64
2017-07-01T08:24:19.971Z,58
2017-07-01T08:25:22.470Z,76
2017-07-01T08:26:24.546Z,64
2017-07-01T08:27:26.622Z,69
2017-07-01T08:28:29.005Z,72
2017-07-01T08:29:31.080Z,73
2017-07-01T08:30:33.171Z,67
2017-07-01T08:31:35.237Z,64
2017-07-01T08:32:37.285Z,77
2017-07-01T08:33:39.353Z,58
2017-07-01T08:34:41.770Z,64
2017-07-01T08:35:43.834Z,67
2017-07-01T08:36:45.903Z,59
2017-07-01T08:37:47.969Z,70
2017-07-01T08:38:50.055Z,75
2017-07-01T08:39:52.449Z,80
2017-07-01T08:40:54.519Z,77
2017-07-01T08:41:56.596Z,86
2017-07-01T08:42:58.660Z,73
2017-07-01T08:44:00.769Z,79
2017-07-01T08:45:03.518Z,78
2017-07-01T08:46:05.591Z,70
2017-07-01T08:47:07.651Z,61
2017-07-01T08:48:09.717Z,42
2017-07-01T08:49:11.790Z,43
2017-07-01T08:50:14.201Z,57
2017-07-01T08:51:16.267Z,64
2017-07-01T08:52:18.328Z,71
2017-07-01T08:53:20.410Z,90
2017-07-01T08:54:22.828Z,87
2017-07-01T08:55:24.885Z,62
2017-07-01T08:56:26.960Z,68
2017-07-01T08:57:29.029Z,79
2017-07-01T08:58:31.101Z,63
2017-07-01T08:59:33.162Z,43
2017-07-01T09:00:35.230Z,64
2017-07-01T09:01:37.666Z,64
2017-07-01T09:02:39.721Z,56
2017-07-01T09:03:42.109Z,56
2017-07-01T09:04:44.175Z,58
2017-07-01T09:05:46.240Z,59
2017-07-01T09:06:48.311Z,69
2017-07-01T09:07:50.410Z,68
2017-07-01T09:08:52.481Z,73
2017-07-01T09:09:54.545Z,77
2017-07-01T09:10:56.620Z,73
2017-07-01T09:11:58.693Z,71
2017-07-01T09:13:00.735Z,85
2017-07-01T09:14:02.833Z,69
2017-07-01T09:15:04.913Z,60
2017-07-01T09:16:07.316Z,58
2017-07-01T09:17:09.397Z,52
2017-07-01T09:18:11.471Z,56
2017-07-01T09:19:13.556Z,49
2017-07-01T09:20:16.317Z,48
2017-07-01T09:21:18.384Z,54
2017-07-01T09:22:20.474Z,58
2017-07-01T09:23:23.348Z,50
2017-07-01T09:24:25.767Z,61
2017-07-01T09:25:27.873Z,78
2017-07-01T09:26:29.985Z,68
2017-07-01T09:27:32.072Z,68
2017-07-01T09:28:34.131Z,76
2017-07-01T09:29:36.837Z,79
2017-07-01T09:30:38.906Z,79
2017-07-01T09:31:40.974Z,86
2017-07-01T09:32:43.379Z,80
2017-07-01T09:33:45.449Z,82
2017-07-01T09:34:47.539Z,99
2017-07-01T09:35:49.610Z,77
2017-07-01T09:36:51.715Z,74
2017-07-01T09:37:53.784Z,81
2017-07-01T09:38:55.850Z,98
2017-07-01T09:39:57.920Z,95
2017-07-01T09:40:59.986Z,97
2017-07-01T09:42:02.062Z,95
2017-07-01T09:43:04.137Z,69
2017-07-01T09:44:06.182Z,62
2017-07-01T09:45:08.628Z,63
2017-07-01T09:46:10.720Z,57
2017-07-01T09:47:12.776Z,66
2017-07-01T09:48:14.850Z,54
2017-07-01T09:49:16.912Z,53
2017-07-01T09:50:18.994Z,64
2017-07-01T09:51:21.061Z,99
2017-07-01T09:52:23.145Z,95
2017-07-01T09:53:25.194Z,113
2017-07-01T09:54:27.283Z,124
2017-07-01T09:55:29.339Z,139
2017-07-01T09:56:31.459Z,112
2017-07-01T09:57:33.527Z,127
2017-07-01T09:58:35.602Z,123
2017-07-01T09:59:37.680Z,143
2017-07-01T10:00:39.743Z,125
2017-07-01T10:01:41.811Z,130
2017-07-01T10:02:43.901Z,139
2017-07-01T10:03:45.962Z,129
2017-07-01T10:04:48.037Z,166
2017-07-01T10:05:50.121Z,134
2017-07-01T10:06:52.184Z,123
2017-07-01T10:07:54.249Z,116
2017-07-01T10:08:56.310Z,127
2017-07-01T10:09:58.425Z,155
2017-07-01T10:11:00.861Z,149
2017-07-01T10:12:03.158Z,166
2017-07-01T10:13:05.229Z,173
2017-07-01T10:14:07.299Z,180
2017-07-01T10:15:09.422Z,156
2017-07-01T10:16:11.487Z,135
2017-07-01T10:17:13.559Z,77
2017-07-01T10:18:15.636Z,98
2017-07-01T10:19:17.701Z,153
2017-07-01T10:20:19.771Z,139
2017-07-01T10:21:21.834Z,118
2017-07-01T10:22:23.912Z,126
2017-07-01T10:23:25.985Z,111
2017-07-01T10:24:28.054Z,63
2017-07-01T10:25:30.112Z,75
2017-07-01T10:26:32.205Z,83
2017-07-01T10:27:34.285Z,96
2017-07-01T10:28:36.352Z,107
2017-07-01T10:29:38.418Z,94
2017-07-01T10:30:40.537Z,112
2017-07-01T10:31:42.633Z,114
2017-07-01T10:32:44.698Z,110
2017-07-01T10:33:46.760Z,92
2017-07-01T10:34:48.840Z,92
2017-07-01T10:35:50.901Z,114
2017-07-01T10:36:52.963Z,107
2017-07-01T10:37:55.376Z,106
2017-07-01T10:38:57.440Z,137
2017-07-01T10:39:59.852Z,108
2017-07-01T10:41:02.250Z,126
2017-07-01T10:42:04.328Z,133
2017-07-01T10:43:06.749Z,156
2017-07-01T10:44:09.166Z,136
2017-07-01T10:45:11.606Z,115
2017-07-01T10:46:13.673Z,96
2017-07-01T10:47:15.749Z,100
2017-07-01T10:48:18.178Z,88
2017-07-01T10:49:20.261Z,72
2017-07-01T10:50:22.694Z,60
2017-07-01T10:51:24.758Z,68
2017-07-01T10:52:26.840Z,51
2017-07-01T10:53:28.921Z,44
2017-07-01T10:54:30.982Z,54
2017-07-01T10:55:33.055Z,47
2017-07-01T10:56:35.466Z,60
2017-07-01T10:57:37.871Z,53
2017-07-01T10:58:39.943Z,61
2017-07-01T10:59:41.996Z,84
2017-07-01T11:00:44.418Z,123
2017-07-01T11:01:46.495Z,137
2017-07-01T11:02:48.569Z,115
2017-07-01T11:03:50.641Z,120
2017-07-01T11:04:52.716Z,114
2017-07-01T11:05:54.781Z,98
2017-07-01T11:06:56.891Z,83
2017-07-01T11:07:58.952Z,67
2017-07-01T11:09:01.010Z,66
2017-07-01T11:10:03.076Z,53
2017-07-01T11:11:05.485Z,41
2017-07-01T11:12:07.552Z,29
2017-07-01T11:13:09.617Z,36
2017-07-01T11:14:11.687Z,55
2017-07-01T11:15:13.808Z,62
2017-07-01T11:16:15.864Z,69
2017-07-01T11:17:18.276Z,73
2017-07-01T11:18:20.408Z,82
2017-07-01T11:19:22.475Z,81
2017-07-01T11:20:24.545Z,88
2017-07-01T11:21:26.612Z,92
2017-07-01T11:22:28.679Z,90
2017-07-01T11:23:30.754Z,93
2017-07-01T11:24:33.149Z,96
2017-07-01T11:25:35.231Z,96
2017-07-01T11:26:37.310Z,95
2017-07-01T11:27:39.371Z,90
2017-07-01T11:28:41.783Z,100
2017-07-01T11:29:43.862Z,102
2017-07-01T11:30:45.949Z,100
2017-07-01T11:31:48.030Z,100
2017-07-01T11:32:50.106Z,105
2017-07-01T11:33:52.195Z,100
2017-07-01T11:34:54.243Z,103
2017-07-01T11:35:56.325Z,111
2017-07-01T11:36:58.401Z,105
2017-07-01T11:38:00.474Z,129
2017-07-01T11:39:02.906Z,140
2017-07-01T11:40:04.957Z,143
2017-07-01T11:41:07.030Z,141
2017-07-01T11:42:09.120Z,118
2017-07-01T11:43:11.184Z,103
2017-07-01T11:44:13.263Z,68
2017-07-01T11:45:15.670Z,61
2017-07-01T11:46:17.786Z,52
2017-07-01T11:47:19.874Z,46
2017-07-01T11:48:21.921Z,51
2017-07-01T11:49:24.012Z,41
2017-07-01T11:50:26.077Z,40
2017-07-01T11:51:28.143Z,38
2017-07-01T11:52:30.561Z,34
2017-07-01T11:53:32.631Z,38
2017-07-01T11:54:35.042Z,48
2017-07-01T11:55:37.109Z,73
2017-07-01T11:56:39.162Z,104
2017-07-01T11:57:41.603Z,120
2017-07-01T11:58:44.333Z,134
2017-07-01T11:59:46.408Z,125
2017-07-01T12:00:48.492Z,141
2017-07-01T12:01:50.560Z,173
2017-07-01T12:02:52.625Z,192
2017-07-01T12:03:54.697Z,184
2017-07-01T12:04:57.101Z,163
2017-07-01T12:05:59.188Z,141
2017-07-01T12:07:01.246Z,128
2017-07-01T12:08:03.338Z,124
2017-07-01T12:09:05.402Z,134
2017-07-01T12:10:07.468Z,154
2017-07-01T12:11:09.548Z,162
2017-07-01T12:12:11.614Z,140
2017-07-01T12:13:13.693Z,95
2017-07-01T12:14:16.114Z,67
2017-07-01T12:15:18.155Z,57
2017-07-01T12:16:20.240Z,56
2017-07-01T12:17:22.314Z,48
2017-07-01T12:18:24.388Z,37
2017-07-01T12:19:26.457Z,38
2017-07-01T12:20:28.505Z,55
2017-07-01T12:21:30.569Z,65
2017-07-01T12:22:32.655Z,63
2017-07-01T12:23:34.723Z,67
2017-07-01T12:24:36.794Z,78
2017-07-01T12:25:38.860Z,91
2017-07-01T12:26:40.938Z,105
2017-07-01T12:27:43.387Z,116
2017-07-01T12:28:45.461Z,126
2017-07-01T12:29:47.548Z,131
2017-07-01T12:30:49.957Z,127
2017-07-01T12:31:52.019Z,125
2017-07-01T12:32:54.089Z,122
2017-07-01T12:33:56.165Z,113
2017-07-01T12:34:58.576Z,102
2017-07-01T12:36:00.644Z,90
2017-07-01T12:37:02.726Z,84
2017-07-01T12:38:04.803Z,91
2017-07-01T12:39:06.865Z,94
2017-07-01T12:40:09.288Z,96
2017-07-01T12:41:11.362Z,84
2017-07-01T12:42:13.434Z,82
2017-07-01T12:43:15.507Z,84
2017-07-01T12:44:17.572Z,79
2017-07-01T12:45:19.989Z,77
2017-07-01T12:46:22.059Z,73
2017-07-01T12:47:24.124Z,85
2017-07-01T12:48:26.561Z,87
2017-07-01T12:49:28.625Z,85
2017-07-01T12:50:30.696Z,83
2017-07-01T12:51:32.771Z,78
2017-07-01T12:52:35.197Z,70
2017-07-01T12:53:37.265Z,79
2017-07-01T12:54:39.330Z,85
2017-07-01T12:55:41.739Z,86
2017-07-01T12:56:43.804Z,81
2017-07-01T12:57:45.872Z,58
2017-07-01T12:58:47.982Z,61
2017-07-01T12:59:50.055Z,54
2017-07-01T13:00:52.134Z,55
2017-07-01T13:01:54.205Z,50
2017-07-01T13:02:56.316Z,44
2017-07-01T13:03:58.402Z,52
2017-07-01T13:05:00.471Z,54
2017-07-01T13:06:02.549Z,70
2017-07-01T13:07:04.612Z,75
2017-07-01T13:08:07.020Z,75
2017-07-01T13:09:09.458Z,74
2017-07-01T13:10:11.507Z,72
2017-07-01T13:11:13.913Z,59
2017-07-01T13:12:16.018Z,63
2017-07-01T13:13:18.070Z,65
2017-07-01T13:14:20.157Z,78
2017-07-01T13:15:22.221Z,86
2017-07-01T13:16:24.297Z,69
2017-07-01T13:17:26.709Z,57
2017-07-01T13:18:28.770Z,33
2017-07-01T13:19:31.187Z,31
2017-07-01T13:20:33.262Z,23
2017-07-01T13:21:35.310Z,25
2017-07-01T13:22:37.397Z,34
2017-07-01T13:23:39.459Z,39
2017-07-01T13:24:41.527Z,58
2017-07-01T13:25:43.599Z,57
2017-07-01T13:26:45.673Z,41
2017-07-01T13:27:48.090Z,32
2017-07-01T13:28:50.482Z,30
2017-07-01T13:29:52.555Z,28
2017-07-01T13:30:54.638Z,31
2017-07-01T13:31:57.036Z,38
2017-07-01T13:32:59.106Z,41
2017-07-01T13:34:01.175Z,64
2017-07-01T13:35:03.581Z,76
2017-07-01T13:36:06.026Z,65
2017-07-01T13:37:08.090Z,60
2017-07-01T13:38:10.149Z,57
2017-07-01T13:39:12.567Z,63
2017-07-01T13:40:15.028Z,53
2017-07-01T13:41:17.092Z,45
2017-07-01T13:42:19.159Z,49
2017-07-01T13:43:21.225Z,54
2017-07-01T13:44:23.302Z,60
2017-07-01T13:45:25.687Z,60
2017-07-01T13:46:27.772Z,63
2017-07-01T13:47:30.179Z,68
2017-07-01T13:48:32.244Z,70
2017-07-01T13:49:34.318Z,78
2017-07-01T13:50:36.715Z,90
2017-07-01T13:51:38.798Z,92
2017-07-01T13:52:40.860Z,85
2017-07-01T13:53:42.931Z,84
2017-07-01T13:54:45.372Z,81
2017-07-01T13:55:47.438Z,68
2017-07-01T13:56:49.512Z,57
2017-07-01T13:57:51.926Z,57
2017-07-01T13:58:53.991Z,50
2017-07-01T13:59:56.059Z,53
2017-07-01T14:00:58.135Z,53
2017-07-01T14:02:00.199Z,56
2017-07-01T14:03:02.267Z,61
2017-07-01T14:04:04.322Z,65
2017-07-01T14:05:06.396Z,69
2017-07-01T14:06:08.822Z,64
2017-07-01T14:07:10.903Z,61
2017-07-01T14:08:13.308Z,62
2017-07-01T14:09:15.706Z,62
2017-07-01T14:10:17.773Z,62
2017-07-01T14:11:19.857Z,63
2017-07-01T14:12:21.930Z,62
2017-07-01T14:13:23.992Z,55
2017-07-01T14:14:26.063Z,58
2017-07-01T14:15:28.125Z,58
2017-07-01T14:16:30.205Z,56
2017-07-01T14:17:32.261Z,61
2017-07-01T14:18:34.669Z,60
2017-07-01T14:19:36.781Z,62
2017-07-01T14:20:38.850Z,64
2017-07-01T14:21:41.259Z,63
2017-07-01T14:22:43.324Z,59
2017-07-01T14:23:45.400Z,64
2017-07-01T14:24:47.469Z,63
2017-07-01T14:25:49.520Z,57
2017-07-01T14:26:51.592Z,55
2017-07-01T14:27:53.663Z,57
2017-07-01T14:28:56.057Z,56
2017-07-01T14:29:58.133Z,55
2017-07-01T14:31:00.197Z,46
2017-07-01T14:32:02.264Z,40
2017-07-01T14:33:04.331Z,36
2017-07-01T14:34:06.393Z,39
2017-07-01T14:35:08.480Z,47
2017-07-01T14:36:10.531Z,51
2017-07-01T14:37:12.607Z,43
2017-07-01T14:38:14.682Z,41
2017-07-01T14:39:16.761Z,37
2017-07-01T14:40:18.820Z,32
2017-07-01T14:41:20.889Z,31
2017-07-01T14:42:22.974Z,30
2017-07-01T14:43:25.036Z,27
2017-07-01T14:44:27.427Z,22
2017-07-01T14:45:29.504Z,22
2017-07-01T14:46:31.628Z,17
2017-07-01T14:47:33.694Z,20
2017-07-01T14:48:36.114Z,21
2017-07-01T14:49:38.165Z,38
2017-07-01T14:50:40.269Z,36
2017-07-01T14:51:42.362Z,36
2017-07-01T14:52:44.417Z,40
2017-07-01T14:53:46.480Z,34
2017-07-01T14:54:48.570Z,33